Scroll down
FLIGHT INFORMATION
Boeing

BOE728

At Arrival Gate

KBUR
 KRDD
DATE: 2020-07-28
GATE:  -
GATE DEPARTURE: 21:00
TAKEOFF: 21:13
DATE: 2020-07-28
GATE:  -
LANDING: 22:30
GATE ARRIVAL: 22:34
FLIGHT DATA
Crew: 
Speed: 
455 kts
Altitude: 
38,011 ft
Stage Length: 
422.6 nm
Block Time: 
1.5 hrs
Flight Time: 
1.3 hrs
Fuel Used: 
7,803 lb
Cleared Route: KBUR CSTRO RBL KRDD
TRACK DATA
50,000 ft 1,000 kts
AIRCRAFT INFO AND CUMULATIVE STATS
Aircraft Type: 
B736
Registration: 
SELCAL: 
NULL
MSN/LN: 
28296 / 21
Operator: 
Total Flights: 
5
Total Block Time: 
7.9 hrs
Total Flight Time: 
6.8 hrs
Total Fuel Used: 
38,293 lb
DATALINK LOG | Newest first | Current as of: 2022-05-16 09:37:05
LABEL SEQUENCE CONTENT Dn/Up
QD372722:34 5.9▼ Dn
QC332422:30▼ Dn
GA5850ADVANCED GATE ASSIGNMENTS NOT YET AVAILABLE AT THIS AIRPORT▲ Up
GR5850KRDD 22:29 HI-VAL NO DIPL/VIP YES▼ Dn
DM484538CSTRO 21:29z FL353 RBL 22:16z KRDD M0.75 10.4 -44 248/49 KRDD 22:23z▼ Dn
2U4237KRDD 282053Z 21004KT 10SM CLR 38/13 A2979 RMK AO2 SLP080 T03780128 58018▲ Up
5R4438CSTRO 21:29z FL353 RBL 22:16z KRDD M0.75 10.4 -44 248/49 KRDD 22:23z▼ Dn
2S4437KRDD▼ Dn
QB150921:13▼ Dn
QA025721:00 13.8▼ Dn
2U3947KBUR 281953Z 16009G14KT 10SM CLR 27/14 A2989 RMK AO2 SLP110 T02720139 $▲ Up
2S4038KBUR▼ Dn
A33644CLEARED TO KRDD VIA OROSZ2 CSTRO RBL. SQUAWK .▲ Up
Q03534[LINK ACK]▲ Up
Q03534[LINK TEST]▼ Dn
A32319CLEARED TO KRDD VIA OROSZ2 CSTRO RBL. SQUAWK .▲ Up
Q02209[LINK ACK]▲ Up
Q02209[LINK TEST]▼ Dn


AIRCRAFT HISTORY
FLIGHT DATE FLIGHT NO. ORIGIN DESTINATION CLEARED ROUTE BLOCK TIME FLIGHT TIME FUEL USED PILOT
2020-08-10BOE810KRDD KTVL KRDD KBLU KTRK KTVL0.7 hrs0.6 hrs3,928 lbEphedrin
2020-07-28BOE728KBUR KRDD KBUR CSTRO RBL KRDD1.5 hrs1.3 hrs7,803 lbEphedrin
2020-06-29BOE628KDEN KBUR KDEN BRKEM WAKIR TUULO HLTON MTSUI BAYLR BOBBA TEHRU WELUM NIPIY KREME DNUTT JOHHN BASAL DYVER CHKNZ KOPLE PMD JANNY PUCCK ELMRR WABBT SILEX RW082.2 hrs2 hrs10,204 lbKyle Weber
2020-02-18BOE18KJAC KDEN 1.6 hrs1.2 hrs6,736 lbCharles Harris
2020-01-26BOE26KRNT KJAC 1.9 hrs1.6 hrs9,621 lbCharles Harris